createdAt,value
2023-03-10T00:02:18.134Z,5.90
2023-03-10T00:05:16.910Z,6.35
2023-03-10T00:08:13.773Z,9.82
2023-03-10T00:11:11.720Z,5.65
2023-03-10T00:14:08.890Z,6.78
2023-03-10T00:17:06.292Z,6.05
2023-03-10T00:20:11.288Z,6.65
2023-03-10T00:23:08.172Z,5.88
2023-03-10T00:26:05.224Z,4.25
2023-03-10T00:29:02.133Z,4.45
2023-03-10T00:31:58.985Z,6.53
2023-03-10T00:34:55.911Z,3.17
2023-03-10T00:37:53.325Z,6.55
2023-03-10T00:40:59.907Z,4.55
2023-03-10T00:43:58.497Z,11.57
2023-03-10T00:46:55.548Z,3.53
2023-03-10T00:49:52.653Z,5.07
2023-03-10T00:52:51.204Z,4.32
2023-03-10T00:56:00.013Z,5.80
2023-03-10T00:58:59.853Z,4.65
2023-03-10T01:01:56.709Z,5.60
2023-03-10T01:04:53.644Z,5.03
2023-03-10T01:07:50.697Z,4.07
2023-03-10T01:10:48.684Z,5.20
2023-03-10T01:13:46.987Z,10.13
2023-03-10T01:16:43.886Z,6.00
2023-03-10T01:19:40.908Z,6.80
2023-03-10T01:22:37.758Z,7.05
2023-03-10T01:25:34.632Z,2.83
2023-03-10T01:28:31.443Z,6.35
2023-03-10T01:31:28.449Z,3.88
2023-03-10T01:34:25.300Z,9.48
2023-03-10T01:37:22.103Z,5.60
2023-03-10T01:40:19.181Z,4.03
2023-03-10T01:43:27.688Z,3.88
2023-03-10T01:46:32.325Z,6.28
2023-03-10T01:49:45.199Z,6.72
2023-03-10T01:52:46.049Z,8.07
2023-03-10T01:58:47.361Z,7.30
2023-03-10T02:01:45.504Z,3.47
2023-03-10T02:04:48.725Z,4.60
2023-03-10T02:07:46.057Z,2.78
2023-03-10T02:10:42.934Z,7.95
2023-03-10T02:13:39.739Z,5.55
2023-03-10T02:16:36.656Z,3.50
2023-03-10T02:19:52.587Z,3.85
2023-03-10T02:22:50.475Z,6.25
2023-03-10T02:26:00.440Z,4.20
2023-03-10T02:29:00.469Z,3.70
2023-03-10T02:31:58.738Z,3.20
2023-03-10T02:34:55.599Z,4.53
2023-03-10T02:37:52.652Z,5.05
2023-03-10T02:40:54.737Z,4.20
2023-03-10T02:43:52.880Z,3.15
2023-03-10T02:46:49.766Z,5.20
2023-03-10T02:49:48.810Z,3.05
2023-03-10T02:52:50.669Z,6.32
2023-03-10T02:55:47.665Z,2.25
2023-03-10T02:58:45.173Z,3.33
2023-03-10T03:01:42.180Z,4.00
2023-03-10T03:04:38.976Z,4.00
2023-03-10T03:07:36.312Z,3.40
2023-03-10T03:10:34.262Z,5.40
2023-03-10T03:13:31.155Z,2.15
2023-03-10T03:16:28.169Z,1.08
2023-03-10T03:19:25.020Z,2.97
2023-03-10T03:22:22.449Z,1.27
2023-03-10T03:25:22.474Z,2.47
2023-03-10T03:28:19.315Z,3.00
2023-03-10T03:31:20.779Z,1.15
2023-03-10T03:34:17.704Z,1.60
2023-03-10T03:37:14.540Z,1.20
2023-03-10T03:40:13.504Z,1.33
2023-03-10T03:43:12.650Z,0.98
2023-03-10T03:46:09.537Z,0.73
2023-03-10T03:49:06.527Z,1.15
2023-03-10T03:52:05.366Z,1.15
2023-03-10T03:55:02.464Z,0.82
2023-03-10T03:57:59.307Z,1.10
2023-03-10T04:00:56.231Z,0.95
2023-03-10T04:03:53.087Z,0.60
2023-03-10T04:06:50.451Z,0.80
2023-03-10T04:09:47.267Z,0.43
2023-03-10T04:12:44.147Z,1.17
2023-03-10T04:15:41.072Z,0.57
2023-03-10T04:18:38.051Z,0.50
2023-03-10T04:21:35.963Z,1.00
2023-03-10T04:24:32.794Z,1.75
2023-03-10T04:27:30.687Z,2.25
2023-03-10T04:30:29.674Z,0.95
2023-03-10T04:33:26.714Z,1.13
2023-03-10T04:36:23.656Z,2.28
2023-03-10T04:39:20.495Z,1.27
2023-03-10T04:42:17.347Z,1.40
2023-03-10T04:45:14.486Z,1.30
2023-03-10T04:48:11.369Z,1.63
2023-03-10T04:51:12.829Z,1.95
2023-03-10T04:54:09.686Z,1.67
2023-03-10T04:57:06.544Z,1.55
2023-03-10T05:00:08.039Z,1.25
2023-03-10T05:03:05.305Z,1.67
2023-03-10T05:06:02.662Z,0.95
2023-03-10T05:09:01.008Z,0.80
2023-03-10T05:11:57.938Z,0.70
2023-03-10T05:14:54.820Z,1.50
2023-03-10T05:17:51.675Z,0.75
2023-03-10T05:20:57.464Z,0.60
2023-03-10T05:23:56.954Z,0.98
2023-03-10T05:26:53.933Z,2.20
2023-03-10T05:29:50.751Z,1.55
2023-03-10T05:32:47.756Z,1.08
2023-03-10T05:35:45.258Z,1.13
2023-03-10T05:38:42.430Z,1.63
2023-03-10T05:41:39.676Z,1.65
2023-03-10T05:44:37.261Z,1.20
2023-03-10T05:47:34.612Z,1.35
2023-03-10T05:50:31.432Z,1.48
2023-03-10T05:53:29.614Z,1.13
2023-03-10T05:56:26.462Z,4.63
2023-03-10T05:59:23.503Z,3.17
2023-03-10T06:02:20.326Z,4.32
2023-03-10T06:05:17.253Z,3.67
2023-03-10T06:08:14.124Z,2.28
2023-03-10T06:11:11.082Z,1.98
2023-03-10T06:14:07.903Z,2.08
2023-03-10T06:17:04.755Z,3.60
2023-03-10T06:20:02.214Z,5.25
2023-03-10T06:22:59.077Z,1.88
2023-03-10T06:26:06.759Z,2.15
2023-03-10T06:29:04.288Z,2.17
2023-03-10T06:32:01.166Z,2.95
2023-03-10T06:34:59.763Z,2.92
2023-03-10T06:37:56.583Z,3.60
2023-03-10T06:40:53.546Z,3.55
2023-03-10T06:43:50.513Z,3.35
2023-03-10T06:46:47.741Z,2.35
2023-03-10T06:49:44.551Z,3.75
2023-03-10T06:52:42.610Z,5.55
2023-03-10T06:55:39.508Z,4.43
2023-03-10T06:58:38.181Z,3.53
2023-03-10T07:01:35.076Z,4.93
2023-03-10T07:04:32.038Z,4.15
2023-03-10T07:07:28.965Z,2.50
2023-03-10T07:10:25.833Z,2.15
2023-03-10T07:13:23.266Z,3.45
2023-03-10T07:16:20.492Z,7.22
2023-03-10T07:19:17.324Z,6.53
2023-03-10T07:22:14.158Z,8.15
2023-03-10T07:25:11.227Z,13.13
2023-03-10T07:28:08.693Z,5.35
2023-03-10T07:31:11.517Z,7.55
2023-03-10T07:34:08.353Z,6.78
2023-03-10T07:37:05.187Z,4.38
2023-03-10T07:40:02.110Z,6.75
2023-03-10T07:42:59.306Z,5.00
2023-03-10T07:45:56.218Z,6.68
2023-03-10T07:48:53.848Z,5.28
2023-03-10T07:51:50.685Z,3.95
2023-03-10T07:54:48.010Z,2.78
2023-03-10T07:57:45.003Z,2.83
2023-03-10T08:00:41.841Z,1.17
2023-03-10T08:03:38.695Z,2.00
2023-03-10T08:06:35.902Z,3.15
2023-03-10T08:09:33.056Z,3.85
2023-03-10T08:12:29.908Z,5.95
2023-03-10T08:15:27.460Z,2.25
2023-03-10T08:18:26.137Z,2.05
2023-03-10T08:21:23.109Z,7.05
2023-03-10T08:24:20.019Z,3.50
2023-03-10T08:27:16.845Z,5.38
2023-03-10T08:30:13.954Z,5.10
2023-03-10T08:33:11.636Z,14.68
2023-03-10T08:36:14.179Z,7.28
2023-03-10T08:39:12.930Z,2.25
2023-03-10T08:42:13.811Z,3.22
2023-03-10T08:45:12.595Z,3.50
2023-03-10T08:48:09.411Z,4.40
2023-03-10T08:51:07.306Z,4.05
2023-03-10T08:54:04.308Z,3.55
2023-03-10T08:57:01.800Z,6.43
2023-03-10T08:59:59.016Z,3.10
2023-03-10T09:02:56.398Z,3.40
2023-03-10T09:05:55.578Z,2.60
2023-03-10T09:08:52.987Z,3.55
2023-03-10T09:11:49.820Z,2.75
2023-03-10T09:14:46.671Z,2.63
2023-03-10T09:17:43.478Z,2.80
2023-03-10T09:20:42.398Z,5.25
2023-03-10T09:23:42.800Z,3.58
2023-03-10T09:26:40.126Z,4.63
2023-03-10T09:29:43.108Z,5.47
2023-03-10T09:32:40.394Z,6.60
2023-03-10T09:35:41.905Z,3.55
2023-03-10T09:38:42.678Z,5.35
2023-03-10T09:42:38.220Z,21.17
2023-03-10T09:45:49.488Z,10.20
2023-03-10T09:49:13.949Z,6.13
2023-03-10T09:52:35.254Z,9.93
2023-03-10T09:55:47.936Z,2.13
2023-03-10T09:58:54.218Z,5.90
2023-03-10T10:01:54.012Z,4.32
2023-03-10T10:05:06.641Z,2.30
2023-03-10T10:08:18.312Z,1.92
2023-03-10T10:11:17.996Z,3.83
2023-03-10T10:14:29.200Z,3.30
2023-03-10T10:18:00.626Z,4.10
2023-03-10T10:21:12.454Z,10.43
2023-03-10T10:24:10.223Z,19.85
2023-03-10T10:27:07.448Z,13.82
2023-03-10T10:30:32.227Z,4.10
2023-03-10T10:33:29.098Z,2.40
2023-03-10T10:36:33.871Z,4.50
2023-03-10T10:39:42.796Z,3.55
2023-03-10T10:42:51.493Z,3.80
2023-03-10T10:45:58.129Z,3.92
2023-03-10T10:49:07.632Z,4.28
2023-03-10T10:52:19.096Z,5.35
2023-03-10T10:55:34.777Z,3.78
2023-03-10T10:58:37.972Z,3.08
2023-03-10T11:02:14.744Z,2.72
2023-03-10T11:05:34.190Z,4.65
2023-03-10T11:08:37.746Z,5.90
2023-03-10T11:11:39.450Z,3.65
2023-03-10T11:15:02.009Z,1.33
2023-03-10T11:18:13.039Z,1.13
2023-03-10T11:21:23.735Z,0.95
2023-03-10T11:24:36.215Z,1.40
2023-03-10T11:27:38.738Z,1.88
2023-03-10T11:30:38.639Z,1.33
2023-03-10T11:33:55.893Z,0.47
2023-03-10T11:37:25.079Z,0.68
2023-03-10T11:40:49.472Z,1.08
2023-03-10T11:44:14.197Z,1.52
2023-03-10T11:47:44.883Z,1.77
2023-03-10T11:50:54.979Z,1.35
2023-03-10T11:53:55.666Z,0.40
2023-03-10T11:56:53.266Z,2.00
2023-03-10T12:00:01.974Z,1.25
2023-03-10T12:03:30.041Z,0.90
2023-03-10T12:06:42.333Z,1.83
2023-03-10T12:09:54.068Z,1.65
2023-03-10T12:12:53.777Z,2.42
2023-03-10T12:15:54.562Z,3.00
2023-03-10T12:22:37.721Z,2.42
2023-03-10T12:25:37.482Z,1.48
2023-03-10T12:28:34.715Z,3.53
2023-03-10T12:31:37.627Z,3.13
2023-03-10T12:34:34.686Z,4.90
2023-03-10T12:37:31.575Z,1.38
2023-03-10T12:40:51.436Z,3.40
2023-03-10T12:44:00.052Z,0.95
2023-03-10T12:47:16.309Z,1.00
2023-03-10T12:50:53.473Z,2.78
2023-03-10T12:53:59.044Z,1.92
2023-03-10T12:57:15.827Z,1.35
2023-03-10T13:00:41.372Z,2.67
2023-03-10T13:03:48.680Z,1.13
2023-03-10T13:06:48.660Z,2.03
2023-03-10T13:09:50.048Z,3.13
2023-03-10T13:12:53.065Z,1.77
2023-03-10T13:16:05.562Z,1.17
2023-03-10T13:19:03.865Z,1.15
2023-03-10T13:22:01.417Z,1.17
2023-03-10T13:25:13.259Z,1.15
2023-03-10T13:28:11.864Z,2.50
2023-03-10T13:31:19.424Z,0.95
2023-03-10T13:34:21.111Z,1.90
2023-03-10T13:37:18.027Z,1.30
2023-03-10T13:40:17.108Z,1.30
2023-03-10T13:43:35.415Z,1.48
2023-03-10T13:46:34.078Z,0.90
2023-03-10T13:49:36.516Z,1.55
2023-03-10T13:52:33.452Z,1.67
2023-03-10T13:55:40.474Z,0.90
2023-03-10T13:58:38.425Z,1.45
2023-03-10T14:01:39.168Z,1.98
2023-03-10T14:07:59.893Z,1.02
2023-03-10T14:11:35.404Z,1.50
2023-03-10T14:14:38.623Z,3.45
2023-03-10T14:17:35.720Z,0.95
2023-03-10T14:20:41.582Z,1.50
2023-03-10T14:23:38.408Z,0.93
2023-03-10T14:26:37.325Z,1.75
2023-03-10T14:29:36.026Z,1.00
2023-03-10T14:32:32.961Z,1.67
2023-03-10T14:35:33.100Z,1.80
2023-03-10T14:38:30.000Z,0.40
2023-03-10T14:41:29.189Z,1.17
2023-03-10T14:44:26.546Z,1.38
2023-03-10T14:47:23.730Z,1.73
2023-03-10T14:50:22.810Z,1.70
2023-03-10T14:53:24.374Z,2.45
2023-03-10T14:56:22.435Z,1.15
2023-03-10T14:59:19.353Z,1.33
2023-03-10T15:02:25.457Z,1.33
2023-03-10T15:05:45.090Z,0.93
2023-03-10T15:08:46.699Z,1.45
2023-03-10T15:12:03.916Z,1.80
2023-03-10T15:15:01.505Z,1.27
2023-03-10T15:17:58.472Z,0.90
2023-03-10T15:21:00.267Z,1.50
2023-03-10T15:23:57.111Z,1.77
2023-03-10T15:26:54.676Z,1.88
2023-03-10T15:29:51.513Z,3.55
2023-03-10T15:32:51.580Z,2.08
2023-03-10T15:35:48.971Z,1.90
2023-03-10T15:38:45.873Z,1.40
2023-03-10T15:41:42.730Z,1.33
2023-03-10T15:44:40.105Z,1.67
2023-03-10T15:47:38.076Z,1.02
2023-03-10T15:50:35.660Z,1.98
2023-03-10T15:53:32.465Z,1.35
2023-03-10T15:56:30.215Z,0.50
2023-03-10T15:59:27.886Z,1.40
2023-03-10T16:02:24.796Z,0.88
2023-03-10T16:05:21.749Z,1.30
2023-03-10T16:08:19.376Z,0.90
2023-03-10T16:11:20.634Z,0.40
2023-03-10T16:14:17.511Z,0.65
2023-03-10T16:17:14.368Z,1.33
2023-03-10T16:20:16.886Z,1.00
2023-03-10T16:23:13.790Z,1.45
2023-03-10T16:26:21.575Z,1.30
2023-03-10T16:29:19.871Z,0.73
2023-03-10T16:32:18.355Z,1.60
2023-03-10T16:35:16.705Z,0.77
2023-03-10T16:38:13.518Z,1.05
2023-03-10T16:41:11.947Z,1.25
2023-03-10T16:44:12.803Z,1.20
2023-03-10T16:50:06.792Z,0.40
2023-03-10T16:53:05.527Z,0.85
2023-03-10T16:56:04.820Z,0.93
2023-03-10T16:59:01.678Z,0.93
2023-03-10T17:01:59.618Z,3.10
2023-03-10T17:04:56.803Z,1.98
2023-03-10T17:07:56.212Z,0.82
2023-03-10T17:10:53.223Z,1.38
2023-03-10T17:13:53.225Z,1.27
2023-03-10T17:16:51.021Z,0.90
2023-03-10T17:19:51.208Z,1.58
2023-03-10T17:22:48.043Z,1.63
2023-03-10T17:25:45.714Z,0.32
2023-03-10T17:28:44.666Z,0.20
2023-03-10T17:31:43.809Z,0.50
2023-03-10T17:34:41.576Z,0.63
2023-03-10T17:37:38.698Z,1.25
2023-03-10T17:40:35.551Z,0.20
2023-03-10T17:43:34.575Z,0.63
2023-03-10T17:46:31.930Z,0.38
2023-03-10T17:49:28.808Z,0.70
2023-03-10T17:52:26.151Z,0.32
2023-03-10T17:55:23.512Z,0.75
2023-03-10T17:58:21.046Z,0.20
2023-03-10T18:01:21.708Z,0.73
2023-03-10T18:04:18.559Z,0.50
2023-03-10T18:07:15.381Z,0.20
2023-03-10T18:10:12.927Z,0.68
2023-03-10T18:13:11.469Z,0.40
2023-03-10T18:16:20.509Z,0.50
2023-03-10T18:19:20.387Z,2.05
2023-03-10T18:22:17.229Z,1.25
2023-03-10T18:25:14.136Z,0.70
2023-03-10T18:28:14.169Z,0.50
2023-03-10T18:31:24.059Z,1.75
2023-03-10T18:34:20.982Z,1.00
2023-03-10T18:37:17.794Z,0.40
2023-03-10T18:40:16.534Z,0.75
2023-03-10T18:43:13.394Z,1.08
2023-03-10T18:46:10.267Z,1.95
2023-03-10T18:49:07.295Z,2.03
2023-03-10T18:52:04.481Z,0.50
2023-03-10T18:55:01.395Z,0.28
2023-03-10T18:57:58.298Z,0.68
2023-03-10T19:00:55.450Z,0.35
2023-03-10T19:03:52.416Z,0.68
2023-03-10T19:06:49.246Z,0.88
2023-03-10T19:09:52.134Z,1.33
2023-03-10T19:12:49.052Z,1.10
2023-03-10T19:15:45.934Z,0.93
2023-03-10T19:18:43.712Z,1.90
2023-03-10T19:21:40.834Z,0.60
2023-03-10T19:24:37.646Z,0.68
2023-03-10T19:27:39.738Z,1.42
2023-03-10T19:30:36.585Z,1.70
2023-03-10T19:33:33.409Z,1.33
2023-03-10T19:36:30.322Z,1.23
2023-03-10T19:39:27.150Z,2.00
2023-03-10T19:42:23.943Z,1.30
2023-03-10T19:45:20.838Z,1.00
2023-03-10T19:48:17.773Z,1.42
2023-03-10T19:51:27.444Z,1.27
2023-03-10T19:54:24.415Z,1.42
2023-03-10T19:57:21.693Z,0.90
2023-03-10T20:00:27.773Z,0.82
2023-03-10T20:03:31.220Z,1.50
2023-03-10T20:06:28.929Z,1.52
2023-03-10T20:09:25.831Z,1.45
2023-03-10T20:12:22.726Z,2.55
2023-03-10T20:15:22.332Z,1.60
2023-03-10T20:18:21.084Z,1.42
2023-03-10T20:21:17.903Z,1.38
2023-03-10T20:24:14.837Z,1.65
2023-03-10T20:27:12.155Z,1.30
2023-03-10T20:30:15.770Z,7.20
2023-03-10T20:33:12.592Z,8.38
2023-03-10T20:36:13.748Z,2.47
2023-03-10T20:39:10.981Z,4.10
2023-03-10T20:42:08.038Z,4.13
2023-03-10T20:45:07.199Z,1.98
2023-03-10T20:48:04.184Z,0.93
2023-03-10T20:51:02.940Z,2.28
2023-03-10T20:54:00.112Z,0.20
2023-03-10T20:56:57.119Z,0.30
2023-03-10T20:59:55.782Z,0.52
2023-03-10T21:02:56.896Z,1.05
2023-03-10T21:05:54.226Z,0.68
2023-03-10T21:08:51.194Z,1.33
2023-03-10T21:11:48.163Z,1.42
2023-03-10T21:14:45.910Z,1.10
2023-03-10T21:17:43.574Z,1.35
2023-03-10T21:20:41.679Z,0.77
2023-03-10T21:23:39.390Z,0.70
2023-03-10T21:26:36.207Z,1.88
2023-03-10T21:29:34.231Z,1.15
2023-03-10T21:32:31.127Z,1.75
2023-03-10T21:35:31.912Z,0.80
2023-03-10T21:38:28.932Z,1.55
2023-03-10T21:41:29.037Z,0.98
2023-03-10T21:44:25.908Z,0.63
2023-03-10T21:47:22.909Z,1.23
2023-03-10T21:50:20.300Z,1.00
2023-03-10T21:53:17.183Z,1.88
2023-03-10T21:56:17.617Z,1.13
2023-03-10T21:59:14.615Z,0.55
2023-03-10T22:02:28.861Z,1.95
2023-03-10T22:05:25.821Z,1.02
2023-03-10T22:08:22.644Z,1.38
2023-03-10T22:11:19.513Z,0.82
2023-03-10T22:14:16.335Z,1.42
2023-03-10T22:17:13.165Z,0.90
2023-03-10T22:20:20.760Z,1.35
2023-03-10T22:23:17.743Z,1.38
2023-03-10T22:26:14.701Z,2.15
2023-03-10T22:29:11.526Z,2.63
2023-03-10T22:32:08.593Z,2.67
2023-03-10T22:35:07.113Z,2.63
2023-03-10T22:38:04.850Z,2.05
2023-03-10T22:41:01.802Z,1.88
2023-03-10T22:43:58.815Z,2.22
2023-03-10T22:46:55.643Z,2.05
2023-03-10T22:49:52.535Z,3.38
2023-03-10T22:52:49.467Z,2.10
2023-03-10T22:55:48.306Z,3.47
2023-03-10T22:58:45.127Z,4.47
2023-03-10T23:01:41.944Z,2.25
2023-03-10T23:04:39.060Z,2.60
2023-03-10T23:07:35.969Z,2.55
2023-03-10T23:10:35.491Z,4.07
2023-03-10T23:13:32.290Z,3.83
2023-03-10T23:16:34.243Z,2.05
2023-03-10T23:19:31.103Z,3.70
2023-03-10T23:22:27.912Z,3.60
2023-03-10T23:25:32.682Z,3.42
2023-03-10T23:28:29.552Z,3.28
2023-03-10T23:31:26.406Z,4.80
2023-03-10T23:34:23.273Z,3.85
2023-03-10T23:37:20.070Z,4.10
2023-03-10T23:40:20.120Z,3.47
2023-03-10T23:43:17.339Z,5.22
2023-03-10T23:46:14.227Z,3.22
2023-03-10T23:49:11.061Z,4.10
2023-03-10T23:52:07.957Z,4.55
2023-03-10T23:55:05.325Z,1.38
2023-03-10T23:58:02.612Z,3.38
